createdAt,value
2018-12-23T00:00:30.535Z,98406.24
2018-12-23T00:02:59.727Z,98402.67
2018-12-23T00:05:28.544Z,98407.16
2018-12-23T00:07:57.393Z,98391.95
2018-12-23T00:10:26.247Z,98401.48
2018-12-23T00:12:55.123Z,98403.39
2018-12-23T00:15:23.943Z,98409.92
2018-12-23T00:17:52.775Z,98403.08
2018-12-23T00:20:21.602Z,98401.73
2018-12-23T00:22:50.425Z,98403.54
2018-12-23T00:25:19.263Z,98405.73
2018-12-23T00:27:48.099Z,98389.78
2018-12-23T00:30:16.945Z,98395.27
2018-12-23T00:32:45.795Z,98400.58
2018-12-23T00:35:20.316Z,98415.77
2018-12-23T00:37:45.486Z,98420.63
2018-12-23T00:40:14.354Z,98422.73
2018-12-23T00:42:43.242Z,98442.55
2018-12-23T00:45:12.138Z,98440.27
2018-12-23T00:47:40.973Z,98437.08
2018-12-23T00:50:09.894Z,98433.26
2018-12-23T00:52:38.755Z,98436.09
2018-12-23T00:55:07.680Z,98444.22
2018-12-23T00:57:36.501Z,98447.42
2018-12-23T01:00:06.496Z,98452.66
2018-12-23T01:02:35.489Z,98457.83
2018-12-23T01:05:05.332Z,98462.88
2018-12-23T01:07:34.555Z,98463.12
2018-12-23T01:10:03.555Z,98463.23
2018-12-23T01:12:32.537Z,98468.66
2018-12-23T01:15:01.387Z,98465.27
2018-12-23T01:17:30.343Z,98483.31
2018-12-23T01:19:59.188Z,98483.44
2018-12-23T01:22:28.047Z,98472.48
2018-12-23T01:24:56.940Z,98487.74
2018-12-23T01:27:26.827Z,98486.31
2018-12-23T01:29:55.743Z,98483.86
2018-12-23T01:32:24.617Z,98492.61
2018-12-23T01:34:53.438Z,98491.67
2018-12-23T01:37:22.326Z,98500.34
2018-12-23T01:39:51.291Z,98497.41
2018-12-23T01:42:20.152Z,98507.94
2018-12-23T01:44:48.993Z,98494.88
2018-12-23T01:47:17.910Z,98502.64
2018-12-23T01:49:46.742Z,98496.48
2018-12-23T01:52:15.694Z,98493.14
2018-12-23T01:54:44.566Z,98497.75
2018-12-23T01:57:14.252Z,98501.95
2018-12-23T01:59:43.090Z,98504.05
2018-12-23T02:02:12.042Z,98497.28
2018-12-23T02:04:40.958Z,98495.30
2018-12-23T02:07:09.919Z,98500.95
2018-12-23T02:09:38.765Z,98500.16
2018-12-23T02:12:07.620Z,98507.83
2018-12-23T02:14:36.651Z,98502.42
2018-12-23T02:17:05.719Z,98503.72
2018-12-23T02:19:34.725Z,98502.25
2018-12-23T02:22:03.551Z,98512.55
2018-12-23T02:24:32.363Z,98515.20
2018-12-23T02:27:01.340Z,98524.56
2018-12-23T02:29:30.283Z,98528.67
2018-12-23T02:31:59.156Z,98532.73
2018-12-23T02:34:28.014Z,98528.13
2018-12-23T02:36:56.851Z,98530.03
2018-12-23T02:39:25.694Z,98529.67
2018-12-23T02:41:54.592Z,98532.19
2018-12-23T02:44:24.283Z,98532.59
2018-12-23T02:46:53.082Z,98530.59
2018-12-23T02:49:21.926Z,98534.65
2018-12-23T02:51:50.869Z,98529.84
2018-12-23T02:54:20.786Z,98527.19
2018-12-23T02:56:49.662Z,98525.28
2018-12-23T02:59:18.492Z,98528.04
2018-12-23T03:01:47.348Z,98535.17
2018-12-23T03:04:16.239Z,98536.02
2018-12-23T03:06:45.149Z,98541.94
2018-12-23T03:09:14.179Z,98538.03
2018-12-23T03:11:43.132Z,98537.32
2018-12-23T03:14:12.068Z,98538.36
2018-12-23T03:16:40.890Z,98545.87
2018-12-23T03:19:10.804Z,98538.91
2018-12-23T03:21:39.778Z,98547.27
2018-12-23T03:24:08.582Z,98539.67
2018-12-23T03:26:37.472Z,98538.61
2018-12-23T03:29:06.407Z,98533.20
2018-12-23T03:31:35.304Z,98535.42
2018-12-23T03:34:04.223Z,98536.58
2018-12-23T03:36:33.064Z,98544.89
2018-12-23T03:39:02.340Z,98535.91
2018-12-23T03:41:31.379Z,98533.15
2018-12-23T03:44:00.358Z,98531.64
2018-12-23T03:46:29.208Z,98534.70
2018-12-23T03:48:58.565Z,98541.81
2018-12-23T03:51:27.400Z,98547.33
2018-12-23T03:53:56.255Z,98555.14
2018-12-23T03:56:25.180Z,98545.66
2018-12-23T03:58:54.011Z,98550.83
2018-12-23T04:01:22.843Z,98550.22
2018-12-23T04:03:51.747Z,98557.79
2018-12-23T04:06:24.690Z,98555.73
2018-12-23T04:08:51.528Z,98550.48
2018-12-23T04:11:20.430Z,98559.80
2018-12-23T04:13:49.280Z,98553.34
2018-12-23T04:16:18.239Z,98554.84
2018-12-23T04:18:47.409Z,98557.90
2018-12-23T04:21:16.323Z,98547.27
2018-12-23T04:23:45.669Z,98548.08
2018-12-23T04:26:14.546Z,98556.49
2018-12-23T04:28:43.374Z,98557.59
2018-12-23T04:31:12.312Z,98560.27
2018-12-23T04:33:42.774Z,98566.91
2018-12-23T04:36:11.648Z,98573.98
2018-12-23T04:38:41.404Z,98571.52
2018-12-23T04:41:10.289Z,98570.07
2018-12-23T04:43:39.220Z,98572.23
2018-12-23T04:46:08.392Z,98579.44
2018-12-23T04:48:38.398Z,98582.95
2018-12-23T04:51:07.184Z,98574.78
2018-12-23T04:53:36.046Z,98576.94
2018-12-23T04:56:05.271Z,98568.56
2018-12-23T04:58:34.168Z,98581.89
2018-12-23T05:01:03.089Z,98578.94
2018-12-23T05:03:31.945Z,98581.64
2018-12-23T05:06:00.800Z,98587.16
2018-12-23T05:08:29.788Z,98578.54
2018-12-23T05:10:58.695Z,98582.50
2018-12-23T05:13:28.160Z,98583.14
2018-12-23T05:15:57.080Z,98580.91
2018-12-23T05:18:25.992Z,98576.69
2018-12-23T05:20:55.063Z,98581.19
2018-12-23T05:23:23.943Z,98587.03
2018-12-23T05:25:52.839Z,98595.50
2018-12-23T05:28:21.659Z,98593.30
2018-12-23T05:30:50.612Z,98597.23
2018-12-23T05:33:21.112Z,98598.67
2018-12-23T05:35:49.952Z,98604.55
2018-12-23T05:38:18.782Z,98607.45
2018-12-23T05:40:47.638Z,98605.81
2018-12-23T05:43:16.581Z,98611.98
2018-12-23T05:45:45.503Z,98614.30
2018-12-23T05:48:14.320Z,98625.16
2018-12-23T05:50:43.164Z,98621.52
2018-12-23T05:53:12.034Z,98627.77
2018-12-23T05:55:39.980Z,98629.80
2018-12-23T05:58:08.853Z,98626.63
2018-12-23T06:00:37.699Z,98629.25
2018-12-23T06:03:06.868Z,98632.62
2018-12-23T06:05:35.781Z,98634.48
2018-12-23T06:08:04.677Z,98622.44
2018-12-23T06:10:33.569Z,98622.09
2018-12-23T06:13:02.451Z,98618.03
2018-12-23T06:15:31.299Z,98623.48
2018-12-23T06:18:00.249Z,98624.62
2018-12-23T06:20:29.067Z,98637.77
2018-12-23T06:22:58.108Z,98636.00
2018-12-23T06:25:27.071Z,98637.91
2018-12-23T06:27:55.869Z,98647.83
2018-12-23T06:30:24.814Z,98633.75
2018-12-23T06:32:53.662Z,98647.78
2018-12-23T06:35:22.532Z,98644.65
2018-12-23T06:37:51.334Z,98648.45
2018-12-23T06:40:20.606Z,98657.28
2018-12-23T06:42:49.454Z,98655.08
2018-12-23T06:45:18.343Z,98656.44
2018-12-23T06:47:47.187Z,98652.24
2018-12-23T06:50:16.100Z,98654.03
2018-12-23T06:52:44.926Z,98652.42
2018-12-23T06:55:13.807Z,98655.47
2018-12-23T06:57:42.721Z,98648.66
2018-12-23T07:00:11.539Z,98654.53
2018-12-23T07:02:40.530Z,98656.02
2018-12-23T07:05:09.315Z,98656.23
2018-12-23T07:07:38.200Z,98662.53
2018-12-23T07:10:08.079Z,98663.20
2018-12-23T07:12:36.943Z,98667.67
2018-12-23T07:15:06.071Z,98658.50
2018-12-23T07:17:34.924Z,98663.46
2018-12-23T07:20:04.151Z,98666.51
2018-12-23T07:22:33.023Z,98666.00
2018-12-23T07:25:01.873Z,98671.58
2018-12-23T07:27:30.831Z,98672.08
2018-12-23T07:29:59.666Z,98672.34
2018-12-23T07:32:28.593Z,98674.30
2018-12-23T07:34:57.438Z,98672.75
2018-12-23T07:37:27.752Z,98667.15
2018-12-23T07:39:56.898Z,98671.20
2018-12-23T07:42:25.750Z,98674.05
2018-12-23T07:44:54.652Z,98680.98
2018-12-23T07:47:23.606Z,98673.36
2018-12-23T07:49:52.484Z,98679.02
2018-12-23T07:52:21.342Z,98686.89
2018-12-23T07:54:50.187Z,98687.74
2018-12-23T07:57:19.057Z,98678.46
2018-12-23T07:59:47.875Z,98676.25
2018-12-23T08:02:16.735Z,98691.09
2018-12-23T08:04:45.702Z,98687.99
2018-12-23T08:07:14.519Z,98691.45
2018-12-23T08:09:43.441Z,98694.21
2018-12-23T08:12:12.330Z,98700.17
2018-12-23T08:14:41.163Z,98702.03
2018-12-23T08:17:10.146Z,98707.15
2018-12-23T08:19:38.992Z,98712.06
2018-12-23T08:22:07.894Z,98705.54
2018-12-23T08:24:36.828Z,98707.70
2018-12-23T08:27:05.882Z,98710.75
2018-12-23T08:29:34.766Z,98712.91
2018-12-23T08:32:03.646Z,98708.00
2018-12-23T08:34:32.610Z,98709.55
2018-12-23T08:37:01.463Z,98709.45
2018-12-23T08:39:30.426Z,98708.45
2018-12-23T08:41:59.323Z,98706.45
2018-12-23T08:44:28.184Z,98705.65
2018-12-23T08:46:57.067Z,98711.52
2018-12-23T08:49:25.908Z,98709.99
2018-12-23T08:51:54.743Z,98706.18
2018-12-23T08:54:23.579Z,98707.89
2018-12-23T08:56:52.408Z,98708.09
2018-12-23T08:59:21.244Z,98710.05
2018-12-23T09:01:50.179Z,98719.29
2018-12-23T09:04:19.023Z,98714.36
2018-12-23T09:06:47.855Z,98721.88
2018-12-23T09:09:16.699Z,98714.73
2018-12-23T09:11:45.531Z,98716.42
2018-12-23T09:14:14.418Z,98717.73
2018-12-23T09:16:43.297Z,98712.77
2018-12-23T09:19:12.151Z,98706.75
2018-12-23T09:21:40.987Z,98711.22
2018-12-23T09:24:09.843Z,98706.78
2018-12-23T09:26:38.730Z,98708.59
2018-12-23T09:29:07.591Z,98702.22
2018-12-23T09:31:36.420Z,98705.63
2018-12-23T09:34:05.294Z,98698.25
2018-12-23T09:36:34.231Z,98696.89
2018-12-23T09:39:04.116Z,98688.31
2018-12-23T09:41:33.008Z,98691.52
2018-12-23T09:44:01.847Z,98692.48
2018-12-23T09:46:30.819Z,98693.02
2018-12-23T09:48:59.896Z,98681.19
2018-12-23T09:51:28.736Z,98685.02
2018-12-23T09:53:57.564Z,98682.75
2018-12-23T09:56:26.389Z,98681.59
2018-12-23T09:58:55.351Z,98677.33
2018-12-23T10:01:24.216Z,98677.03
2018-12-23T10:03:53.119Z,98673.46
2018-12-23T10:06:21.941Z,98672.60
2018-12-23T10:08:50.835Z,98665.59
2018-12-23T10:11:19.703Z,98668.50
2018-12-23T10:13:49.637Z,98660.87
2018-12-23T10:16:18.535Z,98669.67
2018-12-23T10:18:47.473Z,98669.72
2018-12-23T10:21:16.403Z,98672.85
2018-12-23T10:23:45.259Z,98675.56
2018-12-23T10:26:14.091Z,98677.77
2018-12-23T10:28:43.041Z,98674.41
2018-12-23T10:31:11.881Z,98659.87
2018-12-23T10:33:42.961Z,98656.67
2018-12-23T10:36:12.313Z,98662.75
2018-12-23T10:38:41.130Z,98663.44
2018-12-23T10:41:09.967Z,98654.59
2018-12-23T10:43:38.880Z,98657.86
2018-12-23T10:46:07.871Z,98656.34
2018-12-23T10:48:37.451Z,98638.59
2018-12-23T10:51:06.385Z,98637.87
2018-12-23T10:54:08.064Z,98630.17
2018-12-23T10:56:38.323Z,98627.48
2018-12-23T10:59:08.430Z,98624.31
2018-12-23T11:01:38.764Z,98626.72
2018-12-23T11:04:08.872Z,98612.23
2018-12-23T11:06:39.092Z,98613.27
2018-12-23T11:09:10.291Z,98599.09
2018-12-23T11:11:40.472Z,98596.32
2018-12-23T11:14:10.652Z,98581.84
2018-12-23T11:16:41.094Z,98576.11
2018-12-23T11:19:11.189Z,98572.03
2018-12-23T11:21:41.259Z,98578.89
2018-12-23T11:24:11.341Z,98569.56
2018-12-23T11:26:41.605Z,98567.83
2018-12-23T11:29:11.697Z,98566.89
2018-12-23T11:31:41.782Z,98558.23
2018-12-23T11:34:12.093Z,98562.23
2018-12-23T11:36:42.248Z,98553.18
2018-12-23T11:39:12.330Z,98553.42
2018-12-23T11:41:42.458Z,98551.06
2018-12-23T11:44:12.664Z,98545.31
2018-12-23T11:46:42.783Z,98541.59
2018-12-23T11:49:12.850Z,98540.55
2018-12-23T11:51:43.269Z,98529.77
2018-12-23T11:54:13.353Z,98524.77
2018-12-23T11:56:43.448Z,98527.34
2018-12-23T11:59:13.863Z,98516.41
2018-12-23T12:01:44.044Z,98516.30
2018-12-23T12:04:14.274Z,98514.27
2018-12-23T12:06:44.394Z,98509.33
2018-12-23T12:09:14.805Z,98514.33
2018-12-23T12:11:44.945Z,98513.35
2018-12-23T12:14:15.034Z,98504.14
2018-12-23T12:16:45.237Z,98502.78
2018-12-23T12:19:15.632Z,98499.59
2018-12-23T12:21:46.197Z,98501.25
2018-12-23T12:24:16.272Z,98489.11
2018-12-23T12:26:46.448Z,98484.42
2018-12-23T12:29:16.548Z,98481.36
2018-12-23T12:31:46.640Z,98478.27
2018-12-23T12:34:16.889Z,98468.59
2018-12-23T12:36:47.061Z,98475.41
2018-12-23T12:39:17.563Z,98471.59
2018-12-23T12:41:47.742Z,98468.87
2018-12-23T12:44:18.000Z,98462.46
2018-12-23T12:46:48.083Z,98466.91
2018-12-23T12:49:18.328Z,98460.72
2018-12-23T12:51:48.771Z,98459.88
2018-12-23T12:54:19.259Z,98452.58
2018-12-23T12:56:49.457Z,98445.30
2018-12-23T12:59:19.535Z,98445.77
2018-12-23T13:01:50.024Z,98447.69
2018-12-23T13:04:20.111Z,98432.94
2018-12-23T13:06:50.212Z,98430.20
2018-12-23T13:09:20.443Z,98425.36
2018-12-23T13:11:50.530Z,98427.28
2018-12-23T13:14:21.002Z,98428.98
2018-12-23T13:16:51.117Z,98431.83
2018-12-23T13:19:21.263Z,98422.56
2018-12-23T13:21:51.715Z,98422.13
2018-12-23T13:24:21.812Z,98418.81
2018-12-23T13:26:51.980Z,98413.70
2018-12-23T13:29:22.168Z,98411.30
2018-12-23T13:31:52.294Z,98409.19
2018-12-23T13:34:22.816Z,98397.89
2018-12-23T13:36:52.985Z,98403.96
2018-12-23T13:39:23.067Z,98393.97
2018-12-23T13:42:52.931Z,98390.55
2018-12-23T13:45:54.433Z,98389.27
2018-12-23T13:49:17.760Z,98377.05
2018-12-23T13:52:18.015Z,98367.06
2018-12-23T13:55:37.416Z,98370.11
2018-12-23T13:58:54.622Z,98366.19
2018-12-23T14:02:17.874Z,98368.03
2018-12-23T14:05:12.148Z,98345.44
2018-12-23T14:08:08.464Z,98338.02
2018-12-23T14:11:21.890Z,98338.41
2018-12-23T14:13:52.005Z,98338.56
2018-12-23T14:16:22.091Z,98327.95
2018-12-23T14:18:52.307Z,98318.69
2018-12-23T14:21:22.466Z,98315.50
2018-12-23T14:23:52.571Z,98315.23
2018-12-23T14:26:22.754Z,98313.75
2018-12-23T14:28:53.226Z,98307.67
2018-12-23T14:31:23.671Z,98303.98
2018-12-23T14:33:53.877Z,98303.98
2018-12-23T14:36:24.044Z,98311.71
2018-12-23T14:38:55.573Z,98309.72
2018-12-23T14:41:25.862Z,98293.59
2018-12-23T14:43:56.023Z,98295.88
2018-12-23T14:46:26.505Z,98293.05
2018-12-23T14:48:56.785Z,98289.27
2018-12-23T14:51:26.982Z,98287.42
2018-12-23T14:53:57.085Z,98289.98
2018-12-23T14:56:27.237Z,98290.69
2018-12-23T14:58:57.360Z,98288.25
2018-12-23T15:01:27.610Z,98288.00
2018-12-23T15:03:57.795Z,98284.66
2018-12-23T15:06:27.979Z,98282.50
2018-12-23T15:08:58.078Z,98279.31
2018-12-23T15:11:28.526Z,98278.19
2018-12-23T15:13:58.681Z,98273.16
2018-12-23T15:16:28.819Z,98264.39
2018-12-23T15:19:00.530Z,98267.25
2018-12-23T15:21:30.763Z,98251.95
2018-12-23T15:24:01.309Z,98245.42
2018-12-23T15:26:31.479Z,98244.04
2018-12-23T15:29:01.592Z,98241.25
2018-12-23T15:31:32.056Z,98243.41
2018-12-23T15:34:02.492Z,98240.61
2018-12-23T15:36:33.082Z,98236.73
2018-12-23T15:39:04.854Z,98234.49
2018-12-23T15:41:35.310Z,98228.27
2018-12-23T15:44:05.502Z,98218.70
2018-12-23T15:46:35.728Z,98218.94
2018-12-23T15:49:05.907Z,98222.52
2018-12-23T15:51:36.151Z,98215.67
2018-12-23T15:54:06.252Z,98212.41
2018-12-23T15:56:36.508Z,98210.64
2018-12-23T15:59:06.723Z,98209.44
2018-12-23T16:01:36.889Z,98206.82
2018-12-23T16:04:06.983Z,98201.23
2018-12-23T16:06:37.135Z,98202.03
2018-12-23T16:09:08.791Z,98195.58
2018-12-23T16:11:39.407Z,98198.87
2018-12-23T16:14:10.595Z,98191.30
2018-12-23T16:16:40.769Z,98181.70
2018-12-23T16:19:11.232Z,98184.36
2018-12-23T16:21:41.304Z,98185.01
2018-12-23T16:24:11.516Z,98175.75
2018-12-23T16:26:42.686Z,98174.63
2018-12-23T16:29:12.817Z,98165.55
2018-12-23T16:31:43.132Z,98164.66
2018-12-23T16:34:13.382Z,98155.39
2018-12-23T16:36:43.943Z,98150.36
2018-12-23T16:39:14.038Z,98147.45
2018-12-23T16:41:44.176Z,98150.86
2018-12-23T16:44:14.271Z,98145.94
2018-12-23T16:46:44.371Z,98129.59
2018-12-23T16:49:14.461Z,98133.27
2018-12-23T16:51:44.741Z,98124.70
2018-12-23T16:54:14.951Z,98115.62
2018-12-23T16:56:45.023Z,98108.38
2018-12-23T16:59:15.609Z,98108.07
2018-12-23T17:01:45.985Z,98100.50
2018-12-23T17:04:16.692Z,98105.05
2018-12-23T17:06:46.865Z,98107.52
2018-12-23T17:09:17.339Z,98098.28
2018-12-23T17:11:47.425Z,98095.27
2018-12-23T17:14:17.713Z,98097.39
2018-12-23T17:16:48.123Z,98091.11
2018-12-23T17:19:18.416Z,98086.01
2018-12-23T17:21:48.571Z,98086.80
2018-12-23T17:24:19.019Z,98072.16
2018-12-23T17:26:49.135Z,98073.30
2018-12-23T17:29:19.353Z,98065.26
2018-12-23T17:31:49.543Z,98056.46
2018-12-23T17:34:19.716Z,98046.05
2018-12-23T17:36:49.809Z,98034.74
2018-12-23T17:39:24.012Z,98023.61
2018-12-23T17:41:54.206Z,98023.44
2018-12-23T17:44:24.392Z,98016.05
2018-12-23T17:46:54.899Z,98008.56
2018-12-23T17:49:25.090Z,98012.23
2018-12-23T17:51:55.253Z,98021.00
2018-12-23T17:54:25.474Z,98008.02
2018-12-23T17:56:55.581Z,98000.14
2018-12-23T17:59:25.676Z,98008.58
2018-12-23T18:01:56.080Z,98013.75
2018-12-23T18:04:26.638Z,98010.32
2018-12-23T18:07:03.692Z,98010.73
2018-12-23T18:09:28.719Z,98011.33
2018-12-23T18:11:58.879Z,98006.95
2018-12-23T18:14:29.114Z,97992.44
2018-12-23T18:16:59.238Z,97989.17
2018-12-23T18:19:29.735Z,97975.55
2018-12-23T18:21:59.910Z,97971.66
2018-12-23T18:24:30.088Z,97973.81
2018-12-23T18:27:00.800Z,97967.12
2018-12-23T18:29:30.877Z,97966.95
2018-12-23T18:32:00.953Z,97957.33
2018-12-23T18:34:31.043Z,97944.84
2018-12-23T18:37:01.134Z,97943.48
2018-12-23T18:39:31.222Z,97929.64
2018-12-23T18:42:01.372Z,97929.40
2018-12-23T18:44:31.465Z,97926.70
2018-12-23T18:47:01.541Z,97911.81
2018-12-23T18:49:31.698Z,97900.51
2018-12-23T18:52:02.013Z,97912.56
2018-12-23T18:54:32.145Z,97900.43
2018-12-23T18:57:06.182Z,97905.13
2018-12-23T18:59:40.207Z,97896.61
2018-12-23T19:02:13.466Z,97881.81
2018-12-23T19:04:43.694Z,97876.56
2018-12-23T19:07:13.893Z,97873.21
2018-12-23T19:10:12.703Z,97858.81
2018-12-23T19:13:19.966Z,97858.65
2018-12-23T19:16:26.450Z,97855.07
2018-12-23T19:19:40.869Z,97843.92
2018-12-23T19:22:45.222Z,97842.98
2018-12-23T19:26:00.714Z,97846.08
2018-12-23T19:28:47.426Z,97844.97
2018-12-23T19:32:09.895Z,97831.28
2018-12-23T19:35:23.421Z,97834.62
2018-12-23T19:38:23.609Z,97827.78
2018-12-23T19:41:26.461Z,97818.63
2018-12-23T19:44:09.043Z,97810.04
2018-12-23T19:47:19.191Z,97803.98
2018-12-23T19:50:30.443Z,97809.55
2018-12-23T19:53:22.398Z,97807.64
2018-12-23T19:56:46.241Z,97802.95
2018-12-23T20:00:04.529Z,97799.36
2018-12-23T20:03:03.227Z,97804.70
2018-12-23T20:06:03.394Z,97800.34
2018-12-23T20:09:06.806Z,97799.54
2018-12-23T20:12:22.827Z,97799.54
2018-12-23T20:15:10.042Z,97780.76
2018-12-23T20:18:06.621Z,97770.00
2018-12-23T20:21:20.641Z,97760.69
2018-12-23T20:24:07.328Z,97764.68
2018-12-23T20:27:08.554Z,97752.59
2018-12-23T20:30:20.901Z,97761.80
2018-12-23T20:33:27.241Z,97743.42
2018-12-23T20:37:03.221Z,97732.75
2018-12-23T20:40:09.103Z,97724.09
2018-12-23T20:43:19.883Z,97717.89
2018-12-23T20:46:19.697Z,97721.30
2018-12-23T20:49:21.041Z,97713.81
2018-12-23T20:52:42.253Z,97697.49
2018-12-23T20:55:55.609Z,97698.29
2018-12-23T20:58:44.191Z,97688.52
2018-12-23T21:01:37.275Z,97694.41
2018-12-23T21:04:48.734Z,97676.08
2018-12-23T21:07:59.536Z,97667.11
2018-12-23T21:11:05.514Z,97654.52
2018-12-23T21:14:10.827Z,97651.49
2018-12-23T21:16:59.295Z,97646.73
2018-12-23T21:20:05.680Z,97640.70
2018-12-23T21:23:01.179Z,97639.50
2018-12-23T21:26:07.349Z,97635.20
2018-12-23T21:29:01.726Z,97632.03
2018-12-23T21:32:01.264Z,97626.52
2018-12-23T21:35:06.103Z,97616.78
2018-12-23T21:38:23.386Z,97613.70
2018-12-23T21:41:08.767Z,97604.64
2018-12-23T21:44:04.985Z,97601.84
2018-12-23T21:47:28.664Z,97602.31
2018-12-23T21:51:07.592Z,97598.16
2018-12-23T21:54:09.455Z,97598.16
2018-12-23T21:57:24.290Z,97592.33
2018-12-23T22:00:31.864Z,97588.04
2018-12-23T22:04:10.939Z,97590.70
2018-12-23T22:07:31.179Z,97582.48
2018-12-23T22:10:43.290Z,97581.47
2018-12-23T22:13:28.930Z,97585.53
2018-12-23T22:15:59.144Z,97564.59
2018-12-23T22:18:29.537Z,97564.05
2018-12-23T22:20:59.741Z,97557.10
2018-12-23T22:23:30.439Z,97553.47
2018-12-23T22:26:03.283Z,97539.98
2018-12-23T22:28:33.703Z,97539.84
2018-12-23T22:31:04.267Z,97545.06
2018-12-23T22:33:35.369Z,97537.88
2018-12-23T22:36:05.965Z,97522.56
2018-12-23T22:38:36.121Z,97524.67
2018-12-23T22:41:09.757Z,97519.92
2018-12-23T22:43:39.963Z,97515.20
2018-12-23T22:46:10.211Z,97500.81
2018-12-23T22:48:40.423Z,97506.09
2018-12-23T22:51:10.601Z,97491.21
2018-12-23T22:53:40.799Z,97491.61
2018-12-23T22:56:13.433Z,97501.28
2018-12-23T22:58:43.216Z,97489.97
2018-12-23T23:01:13.411Z,97499.86
2018-12-23T23:03:43.566Z,97473.52
2018-12-23T23:06:13.751Z,97469.81
2018-12-23T23:08:44.174Z,97463.37
2018-12-23T23:11:14.450Z,97453.80
2018-12-23T23:13:44.524Z,97447.08
2018-12-23T23:16:14.642Z,97435.72
2018-12-23T23:18:44.747Z,97426.80
2018-12-23T23:21:14.834Z,97417.87
2018-12-23T23:23:44.908Z,97408.16
2018-12-23T23:26:16.375Z,97403.63
2018-12-23T23:28:46.454Z,97389.02
2018-12-23T23:31:16.609Z,97380.33
2018-12-23T23:33:46.787Z,97362.39
2018-12-23T23:36:16.885Z,97369.09
2018-12-23T23:38:47.129Z,97360.21
2018-12-23T23:41:17.225Z,97337.88
2018-12-23T23:43:47.736Z,97338.09
2018-12-23T23:46:18.009Z,97324.85
2018-12-23T23:48:48.421Z,97322.22
2018-12-23T23:51:18.526Z,97338.39
2018-12-23T23:53:49.767Z,97310.05
2018-12-23T23:56:19.974Z,97297.13
2018-12-23T23:58:50.150Z,97300.80
